sensor_id;sensor_type;location;lat;lon;timestamp;temperature;humidity
57552;DHT22;43379;48.160;14.036;2023-04-26T00:01:18;9.00;99.90
57552;DHT22;43379;48.160;14.036;2023-04-26T00:03:44;9.00;99.90
57552;DHT22;43379;48.160;14.036;2023-04-26T00:06:10;9.00;99.90
57552;DHT22;43379;48.160;14.036;2023-04-26T00:08:38;9.00;99.90
57552;DHT22;43379;48.160;14.036;2023-04-26T00:11:04;9.00;99.90
57552;DHT22;43379;48.160;14.036;2023-04-26T00:13:30;9.00;99.90
57552;DHT22;43379;48.160;14.036;2023-04-26T00:15:55;9.10;99.90
57552;DHT22;43379;48.160;14.036;2023-04-26T00:18:21;9.10;99.90
57552;DHT22;43379;48.160;14.036;2023-04-26T00:20:46;9.10;99.90
57552;DHT22;43379;48.160;14.036;2023-04-26T00:23:12;9.10;99.90
57552;DHT22;43379;48.160;14.036;2023-04-26T00:25:38;9.10;99.90
57552;DHT22;43379;48.160;14.036;2023-04-26T00:28:04;9.10;99.90
57552;DHT22;43379;48.160;14.036;2023-04-26T00:30:29;9.10;99.90
57552;DHT22;43379;48.160;14.036;2023-04-26T00:32:55;9.10;99.90
57552;DHT22;43379;48.160;14.036;2023-04-26T00:35:21;9.10;99.90
57552;DHT22;43379;48.160;14.036;2023-04-26T00:37:46;9.10;99.90
57552;DHT22;43379;48.160;14.036;2023-04-26T00:40:12;9.10;99.90
57552;DHT22;43379;48.160;14.036;2023-04-26T00:42:39;9.10;99.90
57552;DHT22;43379;48.160;14.036;2023-04-26T00:45:05;9.10;99.90
57552;DHT22;43379;48.160;14.036;2023-04-26T00:47:32;9.10;99.90
57552;DHT22;43379;48.160;14.036;2023-04-26T00:49:58;9.20;99.90
57552;DHT22;43379;48.160;14.036;2023-04-26T00:52:25;9.10;99.90
57552;DHT22;43379;48.160;14.036;2023-04-26T00:54:53;9.20;99.90
57552;DHT22;43379;48.160;14.036;2023-04-26T00:57:19;9.20;99.90
57552;DHT22;43379;48.160;14.036;2023-04-26T00:59:45;9.20;99.90
57552;DHT22;43379;48.160;14.036;2023-04-26T01:02:11;9.30;99.90
57552;DHT22;43379;48.160;14.036;2023-04-26T01:04:37;9.30;99.90
57552;DHT22;43379;48.160;14.036;2023-04-26T01:07:04;9.30;99.90
57552;DHT22;43379;48.160;14.036;2023-04-26T01:09:31;9.30;99.90
57552;DHT22;43379;48.160;14.036;2023-04-26T01:11:57;9.30;99.90
57552;DHT22;43379;48.160;14.036;2023-04-26T01:14:24;9.30;99.90
57552;DHT22;43379;48.160;14.036;2023-04-26T01:16:50;9.20;99.90
57552;DHT22;43379;48.160;14.036;2023-04-26T01:19:17;9.20;99.90
57552;DHT22;43379;48.160;14.036;2023-04-26T01:21:43;9.20;99.90
57552;DHT22;43379;48.160;14.036;2023-04-26T01:24:10;9.30;99.90
57552;DHT22;43379;48.160;14.036;2023-04-26T01:26:37;9.20;99.90
57552;DHT22;43379;48.160;14.036;2023-04-26T01:29:18;9.30;99.90
57552;DHT22;43379;48.160;14.036;2023-04-26T01:31:44;9.20;99.90
57552;DHT22;43379;48.160;14.036;2023-04-26T01:34:10;9.30;99.90
57552;DHT22;43379;48.160;14.036;2023-04-26T01:36:36;9.30;99.90
57552;DHT22;43379;48.160;14.036;2023-04-26T01:39:02;9.30;99.90
57552;DHT22;43379;48.160;14.036;2023-04-26T01:41:29;9.40;99.90
57552;DHT22;43379;48.160;14.036;2023-04-26T01:43:54;9.40;99.90
57552;DHT22;43379;48.160;14.036;2023-04-26T01:46:20;9.40;99.90
57552;DHT22;43379;48.160;14.036;2023-04-26T01:48:46;9.50;99.90
57552;DHT22;43379;48.160;14.036;2023-04-26T01:51:12;9.50;99.90
57552;DHT22;43379;48.160;14.036;2023-04-26T01:53:38;9.50;99.90
57552;DHT22;43379;48.160;14.036;2023-04-26T01:56:04;9.50;99.90
57552;DHT22;43379;48.160;14.036;2023-04-26T01:58:33;9.50;99.90
57552;DHT22;43379;48.160;14.036;2023-04-26T02:01:06;9.50;99.90
57552;DHT22;43379;48.160;14.036;2023-04-26T02:03:32;9.50;99.90
57552;DHT22;43379;48.160;14.036;2023-04-26T02:05:58;9.50;99.90
57552;DHT22;43379;48.160;14.036;2023-04-26T02:08:23;9.50;99.90
57552;DHT22;43379;48.160;14.036;2023-04-26T02:10:49;9.50;99.90
57552;DHT22;43379;48.160;14.036;2023-04-26T02:13:14;9.50;99.90
57552;DHT22;43379;48.160;14.036;2023-04-26T02:15:44;9.50;99.90
57552;DHT22;43379;48.160;14.036;2023-04-26T02:18:10;9.50;99.90
57552;DHT22;43379;48.160;14.036;2023-04-26T02:20:39;9.50;99.90
57552;DHT22;43379;48.160;14.036;2023-04-26T02:23:07;9.50;99.90
57552;DHT22;43379;48.160;14.036;2023-04-26T02:25:33;9.50;99.90
57552;DHT22;43379;48.160;14.036;2023-04-26T02:27:59;9.50;99.90
57552;DHT22;43379;48.160;14.036;2023-04-26T02:30:26;9.50;99.90
57552;DHT22;43379;48.160;14.036;2023-04-26T02:32:53;9.60;99.90
57552;DHT22;43379;48.160;14.036;2023-04-26T02:35:19;9.60;99.90
57552;DHT22;43379;48.160;14.036;2023-04-26T02:37:45;9.50;99.90
57552;DHT22;43379;48.160;14.036;2023-04-26T02:40:14;9.60;99.90
57552;DHT22;43379;48.160;14.036;2023-04-26T02:42:40;9.50;99.90
57552;DHT22;43379;48.160;14.036;2023-04-26T02:45:06;9.50;99.90
57552;DHT22;43379;48.160;14.036;2023-04-26T02:47:32;9.50;99.90
57552;DHT22;43379;48.160;14.036;2023-04-26T02:50:01;9.40;99.90
57552;DHT22;43379;48.160;14.036;2023-04-26T02:52:28;9.40;99.90
57552;DHT22;43379;48.160;14.036;2023-04-26T02:54:53;9.40;99.90
57552;DHT22;43379;48.160;14.036;2023-04-26T02:57:19;9.30;99.90
57552;DHT22;43379;48.160;14.036;2023-04-26T02:59:44;9.30;99.90
57552;DHT22;43379;48.160;14.036;2023-04-26T03:02:10;9.30;99.90
57552;DHT22;43379;48.160;14.036;2023-04-26T03:04:36;9.20;99.90
57552;DHT22;43379;48.160;14.036;2023-04-26T03:07:03;9.20;99.90
57552;DHT22;43379;48.160;14.036;2023-04-26T03:09:29;9.30;99.90
57552;DHT22;43379;48.160;14.036;2023-04-26T03:11:55;9.20;99.90
57552;DHT22;43379;48.160;14.036;2023-04-26T03:14:20;9.20;99.90
57552;DHT22;43379;48.160;14.036;2023-04-26T03:16:46;9.20;99.90
57552;DHT22;43379;48.160;14.036;2023-04-26T03:19:13;9.20;99.90
57552;DHT22;43379;48.160;14.036;2023-04-26T03:21:39;9.20;99.90
57552;DHT22;43379;48.160;14.036;2023-04-26T03:24:05;9.20;99.90
57552;DHT22;43379;48.160;14.036;2023-04-26T03:26:32;9.20;99.90
57552;DHT22;43379;48.160;14.036;2023-04-26T03:28:57;9.20;99.90
57552;DHT22;43379;48.160;14.036;2023-04-26T03:31:23;9.20;99.90
57552;DHT22;43379;48.160;14.036;2023-04-26T03:33:49;9.10;99.90
57552;DHT22;43379;48.160;14.036;2023-04-26T03:36:14;9.00;99.90
57552;DHT22;43379;48.160;14.036;2023-04-26T03:38:41;9.00;99.90
57552;DHT22;43379;48.160;14.036;2023-04-26T03:41:07;9.00;99.90
57552;DHT22;43379;48.160;14.036;2023-04-26T03:43:33;8.90;99.90
57552;DHT22;43379;48.160;14.036;2023-04-26T03:45:59;8.90;99.90
57552;DHT22;43379;48.160;14.036;2023-04-26T03:48:25;8.90;99.90
57552;DHT22;43379;48.160;14.036;2023-04-26T03:50:52;8.90;99.90
57552;DHT22;43379;48.160;14.036;2023-04-26T03:53:18;8.90;99.90
57552;DHT22;43379;48.160;14.036;2023-04-26T03:55:44;8.90;99.90
57552;DHT22;43379;48.160;14.036;2023-04-26T03:58:10;8.90;99.90
57552;DHT22;43379;48.160;14.036;2023-04-26T04:00:41;8.90;99.90
57552;DHT22;43379;48.160;14.036;2023-04-26T04:03:08;8.90;99.90
57552;DHT22;43379;48.160;14.036;2023-04-26T04:05:33;8.80;99.90
57552;DHT22;43379;48.160;14.036;2023-04-26T04:07:59;8.80;99.90
57552;DHT22;43379;48.160;14.036;2023-04-26T04:10:25;8.80;99.90
57552;DHT22;43379;48.160;14.036;2023-04-26T04:12:50;8.90;99.90
57552;DHT22;43379;48.160;14.036;2023-04-26T04:15:18;8.90;99.90
57552;DHT22;43379;48.160;14.036;2023-04-26T04:17:44;8.90;99.90
57552;DHT22;43379;48.160;14.036;2023-04-26T04:20:10;8.90;99.90
57552;DHT22;43379;48.160;14.036;2023-04-26T04:22:36;8.90;99.90
57552;DHT22;43379;48.160;14.036;2023-04-26T04:25:05;8.90;99.90
57552;DHT22;43379;48.160;14.036;2023-04-26T04:27:31;9.00;99.90
57552;DHT22;43379;48.160;14.036;2023-04-26T04:29:57;8.90;99.90
57552;DHT22;43379;48.160;14.036;2023-04-26T04:32:23;8.90;99.90
57552;DHT22;43379;48.160;14.036;2023-04-26T04:34:49;8.90;99.90
57552;DHT22;43379;48.160;14.036;2023-04-26T04:37:16;8.90;99.90
57552;DHT22;43379;48.160;14.036;2023-04-26T04:39:43;8.90;99.90
57552;DHT22;43379;48.160;14.036;2023-04-26T04:42:08;8.90;99.90
57552;DHT22;43379;48.160;14.036;2023-04-26T04:44:34;8.90;99.90
57552;DHT22;43379;48.160;14.036;2023-04-26T04:47:01;8.80;99.90
57552;DHT22;43379;48.160;14.036;2023-04-26T04:49:27;8.80;99.90
57552;DHT22;43379;48.160;14.036;2023-04-26T04:51:53;8.90;99.90
57552;DHT22;43379;48.160;14.036;2023-04-26T04:54:19;8.90;99.90
57552;DHT22;43379;48.160;14.036;2023-04-26T04:56:44;8.90;99.90
57552;DHT22;43379;48.160;14.036;2023-04-26T04:59:10;8.90;99.90
57552;DHT22;43379;48.160;14.036;2023-04-26T05:01:36;8.90;99.90
57552;DHT22;43379;48.160;14.036;2023-04-26T05:04:03;9.00;99.90
57552;DHT22;43379;48.160;14.036;2023-04-26T05:06:29;9.00;99.90
57552;DHT22;43379;48.160;14.036;2023-04-26T05:08:58;9.00;99.90
57552;DHT22;43379;48.160;14.036;2023-04-26T05:11:25;9.00;99.90
57552;DHT22;43379;48.160;14.036;2023-04-26T05:13:50;9.00;99.90
57552;DHT22;43379;48.160;14.036;2023-04-26T05:16:16;9.00;99.90
57552;DHT22;43379;48.160;14.036;2023-04-26T05:18:41;9.10;99.90
57552;DHT22;43379;48.160;14.036;2023-04-26T05:21:07;9.00;99.90
57552;DHT22;43379;48.160;14.036;2023-04-26T05:23:33;9.10;99.90
57552;DHT22;43379;48.160;14.036;2023-04-26T05:26:05;9.10;99.90
57552;DHT22;43379;48.160;14.036;2023-04-26T05:28:31;9.10;99.90
57552;DHT22;43379;48.160;14.036;2023-04-26T05:30:58;9.20;99.90
57552;DHT22;43379;48.160;14.036;2023-04-26T05:33:25;9.30;99.90
57552;DHT22;43379;48.160;14.036;2023-04-26T05:35:52;9.30;99.90
57552;DHT22;43379;48.160;14.036;2023-04-26T05:38:19;9.30;99.90
57552;DHT22;43379;48.160;14.036;2023-04-26T05:40:44;9.40;99.90
57552;DHT22;43379;48.160;14.036;2023-04-26T05:43:13;9.40;99.90
57552;DHT22;43379;48.160;14.036;2023-04-26T05:45:38;9.50;99.90
57552;DHT22;43379;48.160;14.036;2023-04-26T05:48:05;9.40;99.90
57552;DHT22;43379;48.160;14.036;2023-04-26T05:50:30;9.50;99.90
57552;DHT22;43379;48.160;14.036;2023-04-26T05:52:56;9.60;99.90
57552;DHT22;43379;48.160;14.036;2023-04-26T05:55:22;9.70;99.90
57552;DHT22;43379;48.160;14.036;2023-04-26T05:57:48;9.70;99.90
57552;DHT22;43379;48.160;14.036;2023-04-26T06:00:14;9.80;99.90
57552;DHT22;43379;48.160;14.036;2023-04-26T06:02:41;9.90;99.90
57552;DHT22;43379;48.160;14.036;2023-04-26T06:05:07;10.00;99.90
57552;DHT22;43379;48.160;14.036;2023-04-26T06:07:33;10.00;99.90
57552;DHT22;43379;48.160;14.036;2023-04-26T06:10:02;10.00;99.90
57552;DHT22;43379;48.160;14.036;2023-04-26T06:12:27;10.00;99.90
57552;DHT22;43379;48.160;14.036;2023-04-26T06:14:53;10.00;99.90
57552;DHT22;43379;48.160;14.036;2023-04-26T06:17:19;10.00;99.90
57552;DHT22;43379;48.160;14.036;2023-04-26T06:19:45;10.00;99.90
57552;DHT22;43379;48.160;14.036;2023-04-26T06:22:10;10.00;99.90
57552;DHT22;43379;48.160;14.036;2023-04-26T06:24:36;9.90;99.90
57552;DHT22;43379;48.160;14.036;2023-04-26T06:27:02;10.00;99.90
57552;DHT22;43379;48.160;14.036;2023-04-26T06:29:31;10.20;99.90
57552;DHT22;43379;48.160;14.036;2023-04-26T06:31:57;10.40;99.90
57552;DHT22;43379;48.160;14.036;2023-04-26T06:34:22;10.40;99.90
57552;DHT22;43379;48.160;14.036;2023-04-26T06:36:49;10.60;99.90
57552;DHT22;43379;48.160;14.036;2023-04-26T06:39:14;10.70;99.90
57552;DHT22;43379;48.160;14.036;2023-04-26T06:41:41;10.90;99.90
57552;DHT22;43379;48.160;14.036;2023-04-26T06:44:07;11.30;99.90
57552;DHT22;43379;48.160;14.036;2023-04-26T06:46:33;11.40;99.90
57552;DHT22;43379;48.160;14.036;2023-04-26T06:49:00;11.50;99.90
57552;DHT22;43379;48.160;14.036;2023-04-26T06:51:26;11.40;99.90
57552;DHT22;43379;48.160;14.036;2023-04-26T06:53:51;11.50;99.90
57552;DHT22;43379;48.160;14.036;2023-04-26T06:56:17;11.70;99.90
57552;DHT22;43379;48.160;14.036;2023-04-26T06:59:01;12.00;99.90
57552;DHT22;43379;48.160;14.036;2023-04-26T07:01:27;12.30;99.90
57552;DHT22;43379;48.160;14.036;2023-04-26T07:03:56;12.30;99.90
57552;DHT22;43379;48.160;14.036;2023-04-26T07:06:23;12.30;99.90
57552;DHT22;43379;48.160;14.036;2023-04-26T07:08:49;12.60;99.90
57552;DHT22;43379;48.160;14.036;2023-04-26T07:11:15;13.20;99.90
57552;DHT22;43379;48.160;14.036;2023-04-26T07:13:41;13.40;99.90
57552;DHT22;43379;48.160;14.036;2023-04-26T07:16:06;13.50;99.90
57552;DHT22;43379;48.160;14.036;2023-04-26T07:18:32;13.60;99.90
57552;DHT22;43379;48.160;14.036;2023-04-26T07:20:58;13.50;99.90
57552;DHT22;43379;48.160;14.036;2023-04-26T07:23:23;13.40;99.90
57552;DHT22;43379;48.160;14.036;2023-04-26T07:25:49;13.30;99.90
57552;DHT22;43379;48.160;14.036;2023-04-26T07:28:15;13.50;99.90
57552;DHT22;43379;48.160;14.036;2023-04-26T07:30:40;13.90;99.90
57552;DHT22;43379;48.160;14.036;2023-04-26T07:33:06;14.40;99.90
57552;DHT22;43379;48.160;14.036;2023-04-26T07:35:32;14.80;99.50
57552;DHT22;43379;48.160;14.036;2023-04-26T07:38:00;15.00;98.90
57552;DHT22;43379;48.160;14.036;2023-04-26T07:40:25;15.40;98.10
57552;DHT22;43379;48.160;14.036;2023-04-26T07:42:53;15.80;97.20
57552;DHT22;43379;48.160;14.036;2023-04-26T07:45:19;16.10;96.60
57552;DHT22;43379;48.160;14.036;2023-04-26T07:47:46;16.10;95.80
57552;DHT22;43379;48.160;14.036;2023-04-26T07:50:12;16.00;94.80
57552;DHT22;43379;48.160;14.036;2023-04-26T07:52:38;15.90;94.50
57552;DHT22;43379;48.160;14.036;2023-04-26T07:55:04;16.20;95.60
57552;DHT22;43379;48.160;14.036;2023-04-26T07:57:30;16.40;95.30
57552;DHT22;43379;48.160;14.036;2023-04-26T07:59:56;16.50;94.80
57552;DHT22;43379;48.160;14.036;2023-04-26T08:02:21;16.40;94.80
57552;DHT22;43379;48.160;14.036;2023-04-26T08:04:48;16.30;92.60
57552;DHT22;43379;48.160;14.036;2023-04-26T08:07:15;16.20;91.90
57552;DHT22;43379;48.160;14.036;2023-04-26T08:09:41;16.30;92.10
57552;DHT22;43379;48.160;14.036;2023-04-26T08:12:07;17.00;93.10
57552;DHT22;43379;48.160;14.036;2023-04-26T08:14:35;17.00;92.40
57552;DHT22;43379;48.160;14.036;2023-04-26T08:17:01;17.40;91.30
57552;DHT22;43379;48.160;14.036;2023-04-26T08:19:27;17.30;89.60
57552;DHT22;43379;48.160;14.036;2023-04-26T08:21:56;17.40;90.30
57552;DHT22;43379;48.160;14.036;2023-04-26T08:24:21;17.20;87.00
57552;DHT22;43379;48.160;14.036;2023-04-26T08:26:47;17.20;86.40
57552;DHT22;43379;48.160;14.036;2023-04-26T08:29:13;17.30;85.20
57552;DHT22;43379;48.160;14.036;2023-04-26T08:31:39;17.00;85.90
57552;DHT22;43379;48.160;14.036;2023-04-26T08:34:06;16.90;85.80
57552;DHT22;43379;48.160;14.036;2023-04-26T08:36:36;16.90;84.60
57552;DHT22;43379;48.160;14.036;2023-04-26T08:39:02;16.80;84.40
57552;DHT22;43379;48.160;14.036;2023-04-26T08:41:30;16.50;84.40
57552;DHT22;43379;48.160;14.036;2023-04-26T08:43:59;16.30;86.30
57552;DHT22;43379;48.160;14.036;2023-04-26T08:47:17;16.20;86.70
57552;DHT22;43379;48.160;14.036;2023-04-26T08:49:45;15.90;83.10
57552;DHT22;43379;48.160;14.036;2023-04-26T08:52:17;15.60;83.30
57552;DHT22;43379;48.160;14.036;2023-04-26T08:54:48;15.50;86.10
57552;DHT22;43379;48.160;14.036;2023-04-26T08:57:14;15.70;86.50
57552;DHT22;43379;48.160;14.036;2023-04-26T08:59:41;15.70;87.40
57552;DHT22;43379;48.160;14.036;2023-04-26T09:02:09;15.70;86.40
57552;DHT22;43379;48.160;14.036;2023-04-26T09:04:36;15.50;85.20
57552;DHT22;43379;48.160;14.036;2023-04-26T09:07:03;15.50;86.10
57552;DHT22;43379;48.160;14.036;2023-04-26T09:09:40;15.60;85.20
57552;DHT22;43379;48.160;14.036;2023-04-26T09:12:07;15.70;85.10
57552;DHT22;43379;48.160;14.036;2023-04-26T09:14:33;16.00;84.60
57552;DHT22;43379;48.160;14.036;2023-04-26T09:16:58;15.90;81.10
57552;DHT22;43379;48.160;14.036;2023-04-26T09:19:40;16.00;81.10
57552;DHT22;43379;48.160;14.036;2023-04-26T09:22:09;16.10;82.00
57552;DHT22;43379;48.160;14.036;2023-04-26T09:24:50;16.20;80.10
57552;DHT22;43379;48.160;14.036;2023-04-26T09:27:19;16.30;79.20
57552;DHT22;43379;48.160;14.036;2023-04-26T09:30:16;16.10;76.80
57552;DHT22;43379;48.160;14.036;2023-04-26T09:32:49;16.30;76.30
57552;DHT22;43379;48.160;14.036;2023-04-26T09:35:29;16.70;79.50
57552;DHT22;43379;48.160;14.036;2023-04-26T09:40:27;16.70;75.20
57552;DHT22;43379;48.160;14.036;2023-04-26T09:43:01;16.40;73.20
57552;DHT22;43379;48.160;14.036;2023-04-26T09:45:28;16.70;75.80
57552;DHT22;43379;48.160;14.036;2023-04-26T09:47:54;16.50;75.30
57552;DHT22;43379;48.160;14.036;2023-04-26T09:50:27;16.30;75.00
57552;DHT22;43379;48.160;14.036;2023-04-26T09:52:54;16.20;74.00
57552;DHT22;43379;48.160;14.036;2023-04-26T09:55:29;15.80;72.80
57552;DHT22;43379;48.160;14.036;2023-04-26T09:57:56;15.60;74.80
57552;DHT22;43379;48.160;14.036;2023-04-26T10:00:23;15.30;75.20
57552;DHT22;43379;48.160;14.036;2023-04-26T10:02:51;15.00;76.10
57552;DHT22;43379;48.160;14.036;2023-04-26T10:05:17;14.80;75.70
57552;DHT22;43379;48.160;14.036;2023-04-26T10:07:44;14.60;77.60
57552;DHT22;43379;48.160;14.036;2023-04-26T10:10:11;14.50;77.60
57552;DHT22;43379;48.160;14.036;2023-04-26T10:12:38;14.40;78.00
57552;DHT22;43379;48.160;14.036;2023-04-26T10:15:05;14.30;79.40
57552;DHT22;43379;48.160;14.036;2023-04-26T10:17:33;14.20;80.00
57552;DHT22;43379;48.160;14.036;2023-04-26T10:19:59;14.10;79.90
57552;DHT22;43379;48.160;14.036;2023-04-26T10:22:31;14.00;80.40
57552;DHT22;43379;48.160;14.036;2023-04-26T10:24:58;13.90;80.10
57552;DHT22;43379;48.160;14.036;2023-04-26T10:30:15;14.00;81.40
57552;DHT22;43379;48.160;14.036;2023-04-26T10:35:28;14.40;81.90
57552;DHT22;43379;48.160;14.036;2023-04-26T10:40:31;14.70;81.00
57552;DHT22;43379;48.160;14.036;2023-04-26T10:45:43;14.90;79.50
57552;DHT22;43379;48.160;14.036;2023-04-26T10:53:24;15.10;81.40
57552;DHT22;43379;48.160;14.036;2023-04-26T10:55:50;15.10;80.20
57552;DHT22;43379;48.160;14.036;2023-04-26T10:58:33;15.00;78.60
57552;DHT22;43379;48.160;14.036;2023-04-26T11:01:12;14.80;77.20
57552;DHT22;43379;48.160;14.036;2023-04-26T11:04:00;14.60;78.00
57552;DHT22;43379;48.160;14.036;2023-04-26T11:06:29;14.40;79.80
57552;DHT22;43379;48.160;14.036;2023-04-26T11:09:33;14.10;81.20
57552;DHT22;43379;48.160;14.036;2023-04-26T11:12:04;14.00;82.60
57552;DHT22;43379;48.160;14.036;2023-04-26T11:14:31;14.10;83.50
57552;DHT22;43379;48.160;14.036;2023-04-26T11:16:57;14.40;86.60
57552;DHT22;43379;48.160;14.036;2023-04-26T11:19:22;14.60;86.70
57552;DHT22;43379;48.160;14.036;2023-04-26T11:21:48;14.80;85.70
57552;DHT22;43379;48.160;14.036;2023-04-26T11:24:14;14.80;84.90
57552;DHT22;43379;48.160;14.036;2023-04-26T11:26:40;15.00;85.50
57552;DHT22;43379;48.160;14.036;2023-04-26T11:29:09;15.00;84.20
57552;DHT22;43379;48.160;14.036;2023-04-26T11:31:37;15.10;84.30
57552;DHT22;43379;48.160;14.036;2023-04-26T11:34:03;15.30;84.70
57552;DHT22;43379;48.160;14.036;2023-04-26T11:36:29;15.40;86.10
57552;DHT22;43379;48.160;14.036;2023-04-26T11:38:56;15.60;85.10
57552;DHT22;43379;48.160;14.036;2023-04-26T11:41:22;15.70;82.90
57552;DHT22;43379;48.160;14.036;2023-04-26T11:43:48;15.60;82.80
57552;DHT22;43379;48.160;14.036;2023-04-26T11:46:14;15.80;84.30
57552;DHT22;43379;48.160;14.036;2023-04-26T11:48:41;15.90;83.70
57552;DHT22;43379;48.160;14.036;2023-04-26T11:51:07;16.00;85.60
57552;DHT22;43379;48.160;14.036;2023-04-26T11:53:40;16.20;87.00
57552;DHT22;43379;48.160;14.036;2023-04-26T11:56:16;16.40;84.40
57552;DHT22;43379;48.160;14.036;2023-04-26T11:58:49;16.40;83.30
57552;DHT22;43379;48.160;14.036;2023-04-26T12:01:25;16.30;81.50
57552;DHT22;43379;48.160;14.036;2023-04-26T12:03:53;16.30;81.90
57552;DHT22;43379;48.160;14.036;2023-04-26T12:06:19;16.20;80.80
57552;DHT22;43379;48.160;14.036;2023-04-26T12:08:51;16.20;80.40
57552;DHT22;43379;48.160;14.036;2023-04-26T12:11:17;16.00;80.90
57552;DHT22;43379;48.160;14.036;2023-04-26T12:13:45;15.90;81.00
57552;DHT22;43379;48.160;14.036;2023-04-26T12:16:12;15.90;82.90
57552;DHT22;43379;48.160;14.036;2023-04-26T12:18:39;15.90;82.30
57552;DHT22;43379;48.160;14.036;2023-04-26T12:21:05;15.80;83.20
57552;DHT22;43379;48.160;14.036;2023-04-26T12:23:38;15.90;83.60
57552;DHT22;43379;48.160;14.036;2023-04-26T12:26:05;15.90;82.10
57552;DHT22;43379;48.160;14.036;2023-04-26T12:28:31;15.70;80.40
57552;DHT22;43379;48.160;14.036;2023-04-26T12:30:57;15.80;81.50
57552;DHT22;43379;48.160;14.036;2023-04-26T12:33:25;15.80;82.40
57552;DHT22;43379;48.160;14.036;2023-04-26T12:35:50;16.00;82.90
57552;DHT22;43379;48.160;14.036;2023-04-26T12:38:17;15.80;80.90
57552;DHT22;43379;48.160;14.036;2023-04-26T12:40:43;15.70;79.50
57552;DHT22;43379;48.160;14.036;2023-04-26T12:43:09;15.60;80.90
57552;DHT22;43379;48.160;14.036;2023-04-26T12:45:35;15.60;80.20
57552;DHT22;43379;48.160;14.036;2023-04-26T12:48:01;15.60;81.80
57552;DHT22;43379;48.160;14.036;2023-04-26T12:50:26;15.70;83.60
57552;DHT22;43379;48.160;14.036;2023-04-26T12:52:52;15.70;82.30
57552;DHT22;43379;48.160;14.036;2023-04-26T12:55:19;15.90;83.10
57552;DHT22;43379;48.160;14.036;2023-04-26T12:57:45;15.90;81.80
57552;DHT22;43379;48.160;14.036;2023-04-26T13:00:15;15.90;81.20
57552;DHT22;43379;48.160;14.036;2023-04-26T13:02:44;15.80;80.00
57552;DHT22;43379;48.160;14.036;2023-04-26T13:05:11;15.70;80.10
57552;DHT22;43379;48.160;14.036;2023-04-26T13:07:42;15.60;78.70
57552;DHT22;43379;48.160;14.036;2023-04-26T13:10:08;15.50;79.50
57552;DHT22;43379;48.160;14.036;2023-04-26T13:12:35;15.50;80.70
57552;DHT22;43379;48.160;14.036;2023-04-26T13:15:01;15.50;81.30
57552;DHT22;43379;48.160;14.036;2023-04-26T13:17:27;15.40;81.10
57552;DHT22;43379;48.160;14.036;2023-04-26T13:19:53;15.50;81.30
57552;DHT22;43379;48.160;14.036;2023-04-26T13:22:19;15.50;81.10
57552;DHT22;43379;48.160;14.036;2023-04-26T13:24:45;15.50;81.20
57552;DHT22;43379;48.160;14.036;2023-04-26T13:27:11;15.40;80.50
57552;DHT22;43379;48.160;14.036;2023-04-26T13:29:37;15.40;82.30
57552;DHT22;43379;48.160;14.036;2023-04-26T13:32:03;15.40;82.50
57552;DHT22;43379;48.160;14.036;2023-04-26T13:34:29;15.50;82.50
57552;DHT22;43379;48.160;14.036;2023-04-26T13:36:55;15.50;80.40
57552;DHT22;43379;48.160;14.036;2023-04-26T13:39:23;15.40;79.00
57552;DHT22;43379;48.160;14.036;2023-04-26T13:41:49;15.30;80.00
57552;DHT22;43379;48.160;14.036;2023-04-26T13:44:15;15.40;80.40
57552;DHT22;43379;48.160;14.036;2023-04-26T13:46:41;15.50;80.00
57552;DHT22;43379;48.160;14.036;2023-04-26T13:49:07;15.50;79.80
57552;DHT22;43379;48.160;14.036;2023-04-26T13:51:35;15.50;79.70
57552;DHT22;43379;48.160;14.036;2023-04-26T13:54:02;15.50;80.40
57552;DHT22;43379;48.160;14.036;2023-04-26T13:56:28;15.60;81.20
57552;DHT22;43379;48.160;14.036;2023-04-26T13:58:54;15.60;80.70
57552;DHT22;43379;48.160;14.036;2023-04-26T14:01:24;15.60;80.80
57552;DHT22;43379;48.160;14.036;2023-04-26T14:03:50;15.60;80.30
57552;DHT22;43379;48.160;14.036;2023-04-26T14:06:16;15.60;80.30
57552;DHT22;43379;48.160;14.036;2023-04-26T14:08:42;15.60;79.20
57552;DHT22;43379;48.160;14.036;2023-04-26T14:11:07;15.60;79.00
57552;DHT22;43379;48.160;14.036;2023-04-26T14:13:33;15.50;78.50
57552;DHT22;43379;48.160;14.036;2023-04-26T14:15:59;15.40;79.70
57552;DHT22;43379;48.160;14.036;2023-04-26T14:18:25;15.40;80.20
57552;DHT22;43379;48.160;14.036;2023-04-26T14:20:51;15.40;80.70
57552;DHT22;43379;48.160;14.036;2023-04-26T14:23:16;15.30;79.20
57552;DHT22;43379;48.160;14.036;2023-04-26T14:25:42;15.30;78.70
57552;DHT22;43379;48.160;14.036;2023-04-26T14:28:08;15.20;78.80
57552;DHT22;43379;48.160;14.036;2023-04-26T14:30:33;15.20;78.30
57552;DHT22;43379;48.160;14.036;2023-04-26T14:32:59;15.20;80.10
57552;DHT22;43379;48.160;14.036;2023-04-26T14:35:25;15.30;80.00
57552;DHT22;43379;48.160;14.036;2023-04-26T14:37:51;15.30;80.60
57552;DHT22;43379;48.160;14.036;2023-04-26T14:40:16;15.40;79.20
57552;DHT22;43379;48.160;14.036;2023-04-26T14:42:42;15.50;78.50
57552;DHT22;43379;48.160;14.036;2023-04-26T14:45:11;15.60;78.10
57552;DHT22;43379;48.160;14.036;2023-04-26T14:47:37;15.60;78.40
57552;DHT22;43379;48.160;14.036;2023-04-26T14:50:04;15.60;77.50
57552;DHT22;43379;48.160;14.036;2023-04-26T14:52:33;15.60;76.50
57552;DHT22;43379;48.160;14.036;2023-04-26T14:55:00;15.50;78.10
57552;DHT22;43379;48.160;14.036;2023-04-26T14:57:26;15.40;77.90
57552;DHT22;43379;48.160;14.036;2023-04-26T14:59:52;15.50;78.50
57552;DHT22;43379;48.160;14.036;2023-04-26T15:02:17;15.50;77.80
57552;DHT22;43379;48.160;14.036;2023-04-26T15:04:43;15.50;77.80
57552;DHT22;43379;48.160;14.036;2023-04-26T15:07:09;15.30;76.90
57552;DHT22;43379;48.160;14.036;2023-04-26T15:09:35;15.20;75.90
57552;DHT22;43379;48.160;14.036;2023-04-26T15:12:00;15.10;76.30
57552;DHT22;43379;48.160;14.036;2023-04-26T15:14:29;15.10;76.90
57552;DHT22;43379;48.160;14.036;2023-04-26T15:16:55;15.00;76.90
57552;DHT22;43379;48.160;14.036;2023-04-26T15:19:21;15.10;77.90
57552;DHT22;43379;48.160;14.036;2023-04-26T15:21:47;15.10;77.80
57552;DHT22;43379;48.160;14.036;2023-04-26T15:24:13;15.20;78.30
57552;DHT22;43379;48.160;14.036;2023-04-26T15:26:39;15.20;78.50
57552;DHT22;43379;48.160;14.036;2023-04-26T15:29:05;15.10;78.60
57552;DHT22;43379;48.160;14.036;2023-04-26T15:31:31;15.10;79.20
57552;DHT22;43379;48.160;14.036;2023-04-26T15:33:56;15.10;79.10
57552;DHT22;43379;48.160;14.036;2023-04-26T15:36:23;15.10;79.40
57552;DHT22;43379;48.160;14.036;2023-04-26T15:38:48;15.10;77.90
57552;DHT22;43379;48.160;14.036;2023-04-26T15:41:14;15.00;77.40